El Paso International Airport
KELP : now visible

Airfield :











YOU CAN JOIN US ON...

 
LOGIN :

Register | Disclaimer

   EN    FR    IT 

 









Legend :    VFR   Marginal VFR   IFR   Intensive IFR   Very Intensive IFR
Visi :
Ceiling :
>= 8 km
>= 3000ft
5 to 8 km
1000 to 3000 ft
1500m to 5 km
500 to 1000 ft
800 to 1500m
200 to 500 ft
< 800m
< 200 ft
Symbols :   Thunderstorms  Fog  Heavy snow  Heavy precipitations  Wind > 20 kt






- Airport Elevation : 3959 ft
- IATA code : ELP


KELP - El Paso International

CURRENT METAR :
  • 211351Z 09008KT 10SM FEW024 SCT250 12/05 A3026 RMK AO2 SLP200 CLDS TPG MTNS W T01170050

EXPIRED METARs :
  • 211251Z 05005KT 10SM FEW024 FEW250 11/05 A3023 RMK AO2 SLP188 T01060050
  • 211151Z 10004KT 10SM FEW130 10/05 A3020 RMK AO2 SLP177 T01000050 10139 20100 53012
  • 211051Z 07006KT 10SM FEW130 11/05 A3019 RMK AO2 SLP171 T01060050
  • 210951Z 08006KT 10SM FEW130 11/05 A3017 RMK AO2 SLP166 T01060050
  • 210851Z 08005KT 10SM FEW130 12/04 A3016 RMK AO2 SLP163 T01170044 51010

TAF KELP
Valid from the 21 at 12:00 until the 22 at 12:00 UTC


211136Z 2112/2212 08008KT P6SM FEW050 SCT250
FM211500 10011G18KT P6SM BKN250
FM220400 08007KT P6SM FEW250
KZAB FIR / North America



MET'MAP, your aeronautical weather chart ! - Copyright ORBIFLY December 2007 - Disclaimer

ORBIFLY MET'MAP TEAM :

Programming & Development : Alexandra Zaïnal
Original concept : Baudouin d'Aumeries
Technical & hardware support : Manuel Goepfert
Assistance : Marc-Olivier Méhu




SOURCES & CREDITS :

   NOAA       Earth
Advisory